sensor_id;sensor_type;location;lat;lon;timestamp;pressure;altitude;pressure_sealevel;temperature;humidity
77027;BME280;65956;52.986;17.490;2024-03-08T01:31:12;101156.17;;;-1.99;99.36
77027;BME280;65956;52.986;17.490;2024-03-08T01:33:39;101157.10;;;-2.01;99.75
77027;BME280;65956;52.986;17.490;2024-03-08T01:36:06;101159.64;;;-2.03;99.32
77027;BME280;65956;52.986;17.490;2024-03-08T01:38:32;101152.00;;;-2.05;98.93
77027;BME280;65956;52.986;17.490;2024-03-08T01:40:59;101155.13;;;-2.06;99.55
77027;BME280;65956;52.986;17.490;2024-03-08T01:43:26;101154.92;;;-2.08;99.87
77027;BME280;65956;52.986;17.490;2024-03-08T01:45:58;101153.91;;;-2.10;99.67
77027;BME280;65956;52.986;17.490;2024-03-08T01:48:28;101149.34;;;-2.12;99.51
77027;BME280;65956;52.986;17.490;2024-03-08T01:50:56;101151.98;;;-2.14;99.75
77027;BME280;65956;52.986;17.490;2024-03-08T03:00:12;101113.30;;;-2.47;100.00
77027;BME280;65956;52.986;17.490;2024-03-08T03:02:39;101108.99;;;-2.49;100.00
77027;BME280;65956;52.986;17.490;2024-03-08T03:05:05;101115.05;;;-2.49;100.00
77027;BME280;65956;52.986;17.490;2024-03-08T03:07:32;101113.84;;;-2.49;100.00
77027;BME280;65956;52.986;17.490;2024-03-08T03:10:02;101110.77;;;-2.51;100.00
77027;BME280;65956;52.986;17.490;2024-03-08T03:12:28;101109.57;;;-2.52;100.00
77027;BME280;65956;52.986;17.490;2024-03-08T03:14:55;101105.69;;;-2.54;100.00
77027;BME280;65956;52.986;17.490;2024-03-08T03:17:23;101105.58;;;-2.57;100.00
77027;BME280;65956;52.986;17.490;2024-03-08T03:19:51;101096.83;;;-2.59;100.00
77027;BME280;65956;52.986;17.490;2024-03-08T03:22:21;101098.90;;;-2.60;100.00
77027;BME280;65956;52.986;17.490;2024-03-08T03:24:47;101096.55;;;-2.62;100.00
77027;BME280;65956;52.986;17.490;2024-03-08T03:27:13;101096.27;;;-2.63;100.00
77027;BME280;65956;52.986;17.490;2024-03-08T03:29:42;101097.95;;;-2.64;100.00
77027;BME280;65956;52.986;17.490;2024-03-08T03:32:12;101101.49;;;-2.66;100.00
77027;BME280;65956;52.986;17.490;2024-03-08T03:34:39;101103.00;;;-2.68;100.00
77027;BME280;65956;52.986;17.490;2024-03-08T03:37:06;101101.59;;;-2.70;100.00
77027;BME280;65956;52.986;17.490;2024-03-08T03:39:39;101102.71;;;-2.73;100.00
77027;BME280;65956;52.986;17.490;2024-03-08T03:42:15;101107.66;;;-2.76;100.00
77027;BME280;65956;52.986;17.490;2024-03-08T03:44:46;101105.41;;;-2.78;100.00
77027;BME280;65956;52.986;17.490;2024-03-08T03:47:14;101106.21;;;-2.81;100.00
77027;BME280;65956;52.986;17.490;2024-03-08T03:49:43;101105.60;;;-2.83;100.00
77027;BME280;65956;52.986;17.490;2024-03-08T03:52:09;101102.71;;;-2.84;100.00
77027;BME280;65956;52.986;17.490;2024-03-08T03:54:36;101100.80;;;-2.84;100.00
77027;BME280;65956;52.986;17.490;2024-03-08T03:57:02;101098.40;;;-2.84;100.00
77027;BME280;65956;52.986;17.490;2024-03-08T03:59:29;101099.44;;;-2.85;100.00
77027;BME280;65956;52.986;17.490;2024-03-08T04:01:55;101098.05;;;-2.86;100.00
77027;BME280;65956;52.986;17.490;2024-03-08T04:04:21;101100.45;;;-2.87;100.00
77027;BME280;65956;52.986;17.490;2024-03-08T04:06:49;101098.81;;;-2.88;100.00
77027;BME280;65956;52.986;17.490;2024-03-08T04:09:17;101095.45;;;-2.88;100.00
77027;BME280;65956;52.986;17.490;2024-03-08T04:11:45;101097.14;;;-2.88;100.00
77027;BME280;65956;52.986;17.490;2024-03-08T04:14:11;101096.02;;;-2.89;100.00
77027;BME280;65956;52.986;17.490;2024-03-08T04:16:37;101094.61;;;-2.89;100.00
77027;BME280;65956;52.986;17.490;2024-03-08T04:19:03;101094.44;;;-2.89;100.00
77027;BME280;65956;52.986;17.490;2024-03-08T04:21:30;101091.81;;;-2.90;100.00
77027;BME280;65956;52.986;17.490;2024-03-08T04:23:56;101095.41;;;-2.90;100.00
77027;BME280;65956;52.986;17.490;2024-03-08T04:26:22;101092.80;;;-2.90;100.00
77027;BME280;65956;52.986;17.490;2024-03-08T04:28:48;101092.89;;;-2.91;100.00
77027;BME280;65956;52.986;17.490;2024-03-08T04:31:15;101092.25;;;-2.91;100.00
77027;BME280;65956;52.986;17.490;2024-03-08T04:33:41;101091.05;;;-2.92;100.00
77027;BME280;65956;52.986;17.490;2024-03-08T04:36:07;101086.63;;;-2.93;100.00
77027;BME280;65956;52.986;17.490;2024-03-08T04:38:33;101088.20;;;-2.93;100.00
77027;BME280;65956;52.986;17.490;2024-03-08T04:41:00;101086.49;;;-2.95;100.00
77027;BME280;65956;52.986;17.490;2024-03-08T04:43:27;101084.36;;;-2.95;100.00
77027;BME280;65956;52.986;17.490;2024-03-08T04:45:56;101083.98;;;-2.96;100.00
77027;BME280;65956;52.986;17.490;2024-03-08T04:48:22;101084.59;;;-2.97;100.00
77027;BME280;65956;52.986;17.490;2024-03-08T04:50:48;101085.50;;;-2.99;100.00
77027;BME280;65956;52.986;17.490;2024-03-08T04:53:15;101087.63;;;-2.98;100.00
77027;BME280;65956;52.986;17.490;2024-03-08T04:55:41;101088.34;;;-2.98;100.00
77027;BME280;65956;52.986;17.490;2024-03-08T04:58:07;101086.66;;;-2.98;100.00
77027;BME280;65956;52.986;17.490;2024-03-08T05:00:33;101088.23;;;-2.98;100.00
77027;BME280;65956;52.986;17.490;2024-03-08T05:02:59;101087.86;;;-2.97;100.00
77027;BME280;65956;52.986;17.490;2024-03-08T05:05:25;101087.36;;;-2.98;100.00
77027;BME280;65956;52.986;17.490;2024-03-08T05:07:54;101086.27;;;-2.98;100.00
77027;BME280;65956;52.986;17.490;2024-03-08T05:10:20;101087.84;;;-2.99;100.00
77027;BME280;65956;52.986;17.490;2024-03-08T05:12:46;101087.02;;;-2.99;100.00
77027;BME280;65956;52.986;17.490;2024-03-08T05:15:13;101086.73;;;-2.99;100.00
77027;BME280;65956;52.986;17.490;2024-03-08T05:17:39;101081.55;;;-3.00;100.00
77027;BME280;65956;52.986;17.490;2024-03-08T05:20:06;101084.13;;;-3.00;100.00
77027;BME280;65956;52.986;17.490;2024-03-08T05:22:38;101085.77;;;-3.01;100.00
77027;BME280;65956;52.986;17.490;2024-03-08T05:25:04;101083.77;;;-3.03;100.00
77027;BME280;65956;52.986;17.490;2024-03-08T05:27:30;101084.16;;;-3.03;100.00
77027;BME280;65956;52.986;17.490;2024-03-08T05:29:57;101088.04;;;-3.03;100.00
77027;BME280;65956;52.986;17.490;2024-03-08T05:32:23;101088.97;;;-3.02;100.00
77027;BME280;65956;52.986;17.490;2024-03-08T05:34:50;101085.77;;;-3.01;100.00
77027;BME280;65956;52.986;17.490;2024-03-08T05:37:17;101087.95;;;-3.01;100.00
77027;BME280;65956;52.986;17.490;2024-03-08T05:39:43;101082.77;;;-2.99;100.00
77027;BME280;65956;52.986;17.490;2024-03-08T05:42:10;101081.95;;;-2.98;100.00
77027;BME280;65956;52.986;17.490;2024-03-08T05:44:36;101078.10;;;-2.97;100.00
77027;BME280;65956;52.986;17.490;2024-03-08T05:47:02;101081.55;;;-2.94;100.00
77027;BME280;65956;52.986;17.490;2024-03-08T05:49:28;101083.25;;;-2.90;100.00
77027;BME280;65956;52.986;17.490;2024-03-08T05:51:54;101078.69;;;-2.87;100.00
77027;BME280;65956;52.986;17.490;2024-03-08T05:54:21;101080.56;;;-2.83;100.00
77027;BME280;65956;52.986;17.490;2024-03-08T05:56:50;101080.05;;;-2.78;100.00
77027;BME280;65956;52.986;17.490;2024-03-08T05:59:18;101083.13;;;-2.74;100.00
77027;BME280;65956;52.986;17.490;2024-03-08T06:01:44;101081.68;;;-2.67;100.00
77027;BME280;65956;52.986;17.490;2024-03-08T06:04:11;101081.71;;;-2.59;100.00
77027;BME280;65956;52.986;17.490;2024-03-08T06:06:37;101083.50;;;-2.50;100.00
77027;BME280;65956;52.986;17.490;2024-03-08T06:09:04;101077.37;;;-2.42;100.00
77027;BME280;65956;52.986;17.490;2024-03-08T06:11:37;101080.08;;;-2.32;100.00
77027;BME280;65956;52.986;17.490;2024-03-08T06:14:04;101074.91;;;-2.24;100.00
77027;BME280;65956;52.986;17.490;2024-03-08T06:16:30;101072.64;;;-2.16;100.00
77027;BME280;65956;52.986;17.490;2024-03-08T06:18:56;101072.92;;;-2.10;100.00
77027;BME280;65956;52.986;17.490;2024-03-08T06:21:25;101072.77;;;-2.04;100.00
77027;BME280;65956;52.986;17.490;2024-03-08T06:23:55;101076.02;;;-1.97;100.00
77027;BME280;65956;52.986;17.490;2024-03-08T06:26:24;101076.23;;;-1.90;100.00
77027;BME280;65956;52.986;17.490;2024-03-08T06:28:51;101079.69;;;-1.84;100.00
77027;BME280;65956;52.986;17.490;2024-03-08T06:31:17;101078.81;;;-1.80;100.00
77027;BME280;65956;52.986;17.490;2024-03-08T06:33:43;101072.75;;;-1.75;100.00
77027;BME280;65956;52.986;17.490;2024-03-08T06:36:09;101079.04;;;-1.71;100.00
77027;BME280;65956;52.986;17.490;2024-03-08T06:38:38;101076.15;;;-1.66;100.00
77027;BME280;65956;52.986;17.490;2024-03-08T06:41:09;101073.97;;;-1.60;100.00
77027;BME280;65956;52.986;17.490;2024-03-08T06:43:35;101074.23;;;-1.55;100.00
77027;BME280;65956;52.986;17.490;2024-03-08T06:46:02;101071.84;;;-1.50;100.00
77027;BME280;65956;52.986;17.490;2024-03-08T06:48:29;101074.61;;;-1.43;100.00
77027;BME280;65956;52.986;17.490;2024-03-08T06:50:55;101071.87;;;-1.36;100.00
77027;BME280;65956;52.986;17.490;2024-03-08T06:53:22;101072.91;;;-1.28;100.00
77027;BME280;65956;52.986;17.490;2024-03-08T06:55:48;101071.86;;;-1.22;100.00
77027;BME280;65956;52.986;17.490;2024-03-08T06:58:14;101075.29;;;-1.14;100.00
77027;BME280;65956;52.986;17.490;2024-03-08T07:00:42;101072.55;;;-1.08;100.00
77027;BME280;65956;52.986;17.490;2024-03-08T07:03:09;101073.70;;;-1.03;100.00
77027;BME280;65956;52.986;17.490;2024-03-08T07:05:38;101070.11;;;-0.95;100.00
77027;BME280;65956;52.986;17.490;2024-03-08T07:08:06;101074.24;;;-0.87;100.00
77027;BME280;65956;52.986;17.490;2024-03-08T07:10:32;101075.80;;;-0.79;100.00
77027;BME280;65956;52.986;17.490;2024-03-08T07:12:58;101069.39;;;-0.73;100.00
77027;BME280;65956;52.986;17.490;2024-03-08T07:15:28;101070.34;;;-0.66;100.00
77027;BME280;65956;52.986;17.490;2024-03-08T07:17:54;101073.23;;;-0.60;100.00
77027;BME280;65956;52.986;17.490;2024-03-08T07:20:21;101075.02;;;-0.55;100.00
77027;BME280;65956;52.986;17.490;2024-03-08T07:22:47;101080.30;;;-0.48;100.00
77027;BME280;65956;52.986;17.490;2024-03-08T07:25:14;101081.42;;;-0.41;100.00
77027;BME280;65956;52.986;17.490;2024-03-08T07:27:55;101082.65;;;-0.36;100.00
77027;BME280;65956;52.986;17.490;2024-03-08T07:30:23;101082.23;;;-0.29;100.00
77027;BME280;65956;52.986;17.490;2024-03-08T07:33:07;101079.57;;;-0.22;100.00
77027;BME280;65956;52.986;17.490;2024-03-08T07:35:38;101082.44;;;-0.15;100.00
77027;BME280;65956;52.986;17.490;2024-03-08T07:38:05;101079.73;;;-0.06;100.00
77027;BME280;65956;52.986;17.490;2024-03-08T07:40:34;101075.48;;;0.02;100.00
77027;BME280;65956;52.986;17.490;2024-03-08T07:43:01;101080.42;;;0.10;100.00
77027;BME280;65956;52.986;17.490;2024-03-08T07:45:28;101077.81;;;0.15;100.00
77027;BME280;65956;52.986;17.490;2024-03-08T07:47:54;101079.25;;;0.20;99.97
77027;BME280;65956;52.986;17.490;2024-03-08T07:50:22;101078.98;;;0.28;99.99
77027;BME280;65956;52.986;17.490;2024-03-08T07:52:48;101078.33;;;0.35;99.77
77027;BME280;65956;52.986;17.490;2024-03-08T07:55:15;101076.02;;;0.44;99.69
77027;BME280;65956;52.986;17.490;2024-03-08T07:57:41;101071.08;;;0.50;99.50
77027;BME280;65956;52.986;17.490;2024-03-08T08:00:09;101071.83;;;0.59;99.37
77027;BME280;65956;52.986;17.490;2024-03-08T08:02:36;101071.56;;;0.70;99.48
77027;BME280;65956;52.986;17.490;2024-03-08T08:05:03;101067.16;;;0.82;99.36
77027;BME280;65956;52.986;17.490;2024-03-08T08:07:29;101068.50;;;0.92;98.97
77027;BME280;65956;52.986;17.490;2024-03-08T08:09:56;101068.64;;;1.00;98.47
77027;BME280;65956;52.986;17.490;2024-03-08T08:12:22;101065.11;;;1.06;98.24
77027;BME280;65956;52.986;17.490;2024-03-08T08:14:48;101066.95;;;1.13;98.02
77027;BME280;65956;52.986;17.490;2024-03-08T08:17:14;101067.51;;;1.22;97.85
77027;BME280;65956;52.986;17.490;2024-03-08T08:19:43;101069.54;;;1.32;97.92
77027;BME280;65956;52.986;17.490;2024-03-08T08:22:09;101065.97;;;1.42;97.71
77027;BME280;65956;52.986;17.490;2024-03-08T08:24:35;101067.73;;;1.51;97.59
77027;BME280;65956;52.986;17.490;2024-03-08T08:27:03;101067.98;;;1.61;97.34
77027;BME280;65956;52.986;17.490;2024-03-08T08:29:30;101068.09;;;1.69;96.96
77027;BME280;65956;52.986;17.490;2024-03-08T08:31:59;101062.70;;;1.79;96.91
77027;BME280;65956;52.986;17.490;2024-03-08T08:34:25;101057.56;;;1.88;96.63
77027;BME280;65956;52.986;17.490;2024-03-08T08:36:53;101050.42;;;1.96;96.15
77027;BME280;65956;52.986;17.490;2024-03-08T08:39:19;101050.77;;;2.06;96.17
77027;BME280;65956;52.986;17.490;2024-03-08T08:41:45;101049.00;;;2.17;95.92
77027;BME280;65956;52.986;17.490;2024-03-08T08:44:11;101049.20;;;2.25;95.55
77027;BME280;65956;52.986;17.490;2024-03-08T08:46:39;101053.88;;;2.35;95.31
77027;BME280;65956;52.986;17.490;2024-03-08T08:49:05;101044.80;;;2.45;95.42
77027;BME280;65956;52.986;17.490;2024-03-08T08:51:32;101049.02;;;2.56;95.02
77027;BME280;65956;52.986;17.490;2024-03-08T08:53:59;101043.32;;;2.67;95.06
77027;BME280;65956;52.986;17.490;2024-03-08T08:56:25;101043.91;;;2.78;94.61
77027;BME280;65956;52.986;17.490;2024-03-08T08:58:52;101044.00;;;2.88;94.64
77027;BME280;65956;52.986;17.490;2024-03-08T09:01:21;101044.50;;;2.97;94.36
77027;BME280;65956;52.986;17.490;2024-03-08T09:03:48;101043.18;;;3.05;93.73
77027;BME280;65956;52.986;17.490;2024-03-08T09:06:16;101037.58;;;3.07;93.22
77027;BME280;65956;52.986;17.490;2024-03-08T09:08:42;101037.60;;;3.15;93.14
77027;BME280;65956;52.986;17.490;2024-03-08T09:11:10;101035.28;;;3.23;92.86
77027;BME280;65956;52.986;17.490;2024-03-08T09:13:36;101036.39;;;3.36;92.67
77027;BME280;65956;52.986;17.490;2024-03-08T09:16:03;101033.54;;;3.49;92.29
77027;BME280;65956;52.986;17.490;2024-03-08T09:18:31;101033.83;;;3.61;92.18
77027;BME280;65956;52.986;17.490;2024-03-08T09:20:58;101036.75;;;3.72;91.71
77027;BME280;65956;52.986;17.490;2024-03-08T09:23:25;101034.02;;;3.83;91.31
77027;BME280;65956;52.986;17.490;2024-03-08T09:25:56;101040.20;;;3.95;90.71
77027;BME280;65956;52.986;17.490;2024-03-08T09:28:25;101036.71;;;4.05;90.53
77027;BME280;65956;52.986;17.490;2024-03-08T09:30:53;101037.91;;;4.16;90.01
77027;BME280;65956;52.986;17.490;2024-03-08T09:33:19;101033.58;;;4.24;89.27
77027;BME280;65956;52.986;17.490;2024-03-08T09:35:46;101035.78;;;4.33;88.33
77027;BME280;65956;52.986;17.490;2024-03-08T09:38:13;101040.53;;;4.39;88.82
77027;BME280;65956;52.986;17.490;2024-03-08T09:40:41;101042.06;;;4.47;88.65
77027;BME280;65956;52.986;17.490;2024-03-08T09:43:08;101033.40;;;4.55;88.53
77027;BME280;65956;52.986;17.490;2024-03-08T09:45:36;101030.82;;;4.66;89.02
77027;BME280;65956;52.986;17.490;2024-03-08T09:48:11;101031.08;;;4.79;88.63
77027;BME280;65956;52.986;17.490;2024-03-08T09:50:39;101031.05;;;4.90;87.99
77027;BME280;65956;52.986;17.490;2024-03-08T09:53:06;101028.40;;;5.00;87.29
77027;BME280;65956;52.986;17.490;2024-03-08T09:55:36;101028.70;;;5.09;87.37
77027;BME280;65956;52.986;17.490;2024-03-08T09:58:05;101027.41;;;5.18;86.55
77027;BME280;65956;52.986;17.490;2024-03-08T10:00:44;101024.84;;;5.19;85.75
77027;BME280;65956;52.986;17.490;2024-03-08T10:03:10;101022.31;;;5.20;85.81
77027;BME280;65956;52.986;17.490;2024-03-08T10:05:36;101020.17;;;5.28;85.61
77027;BME280;65956;52.986;17.490;2024-03-08T10:08:03;101018.16;;;5.38;85.35
77027;BME280;65956;52.986;17.490;2024-03-08T10:10:30;101018.33;;;5.51;85.05
77027;BME280;65956;52.986;17.490;2024-03-08T10:12:57;101018.27;;;5.67;84.83
77027;BME280;65956;52.986;17.490;2024-03-08T10:15:23;101014.90;;;5.79;84.24
77027;BME280;65956;52.986;17.490;2024-03-08T10:17:50;101012.70;;;5.92;83.54
77027;BME280;65956;52.986;17.490;2024-03-08T10:20:17;101006.40;;;6.02;83.05
77027;BME280;65956;52.986;17.490;2024-03-08T10:22:44;101003.43;;;6.14;81.66
77027;BME280;65956;52.986;17.490;2024-03-08T10:25:11;101006.85;;;6.26;80.66
77027;BME280;65956;52.986;17.490;2024-03-08T10:27:40;101007.56;;;6.36;80.31
77027;BME280;65956;52.986;17.490;2024-03-08T10:30:16;101005.23;;;6.46;79.53
77027;BME280;65956;52.986;17.490;2024-03-08T10:32:47;100999.13;;;6.55;79.31
77027;BME280;65956;52.986;17.490;2024-03-08T10:35:14;101002.58;;;6.61;78.40
77027;BME280;65956;52.986;17.490;2024-03-08T10:37:46;101000.36;;;6.63;78.17
77027;BME280;65956;52.986;17.490;2024-03-08T10:40:17;101000.02;;;6.71;78.02
77027;BME280;65956;52.986;17.490;2024-03-08T10:43:01;100999.42;;;6.80;77.29
77027;BME280;65956;52.986;17.490;2024-03-08T10:48:28;100995.80;;;6.86;74.25
77027;BME280;65956;52.986;17.490;2024-03-08T10:51:02;100995.17;;;6.84;72.81
77027;BME280;65956;52.986;17.490;2024-03-08T10:53:29;100993.33;;;6.93;74.99
77027;BME280;65956;52.986;17.490;2024-03-08T10:55:59;100987.84;;;6.98;73.18
77027;BME280;65956;52.986;17.490;2024-03-08T10:58:26;100987.32;;;7.07;71.96
77027;BME280;65956;52.986;17.490;2024-03-08T11:00:54;100983.58;;;7.18;70.98
77027;BME280;65956;52.986;17.490;2024-03-08T11:06:07;100978.21;;;7.41;71.40
77027;BME280;65956;52.986;17.490;2024-03-08T11:08:38;100975.62;;;7.51;69.84
77027;BME280;65956;52.986;17.490;2024-03-08T11:11:05;100979.66;;;7.65;69.90
77027;BME280;65956;52.986;17.490;2024-03-08T11:13:39;100980.20;;;7.79;68.34
77027;BME280;65956;52.986;17.490;2024-03-08T11:18:54;100979.21;;;8.13;67.65
77027;BME280;65956;52.986;17.490;2024-03-08T11:21:20;100974.73;;;8.27;66.66
77027;BME280;65956;52.986;17.490;2024-03-08T11:24:00;100975.21;;;8.44;66.78
77027;BME280;65956;52.986;17.490;2024-03-08T11:26:26;100966.05;;;8.67;65.82
77027;BME280;65956;52.986;17.490;2024-03-08T11:28:53;100966.45;;;8.81;65.29
77027;BME280;65956;52.986;17.490;2024-03-08T11:31:23;100965.41;;;9.01;64.22
77027;BME280;65956;52.986;17.490;2024-03-08T11:33:50;100961.27;;;9.18;62.84
77027;BME280;65956;52.986;17.490;2024-03-08T11:36:24;100957.61;;;9.42;63.01
77027;BME280;65956;52.986;17.490;2024-03-08T11:38:53;100955.19;;;9.66;62.43
77027;BME280;65956;52.986;17.490;2024-03-08T11:41:23;100952.50;;;9.98;62.90
77027;BME280;65956;52.986;17.490;2024-03-08T11:44:02;100949.46;;;10.33;62.17
77027;BME280;65956;52.986;17.490;2024-03-08T11:46:31;100944.77;;;10.64;61.37
77027;BME280;65956;52.986;17.490;2024-03-08T11:48:57;100943.83;;;10.89;60.29
77027;BME280;65956;52.986;17.490;2024-03-08T11:51:23;100935.99;;;11.10;59.42
77027;BME280;65956;52.986;17.490;2024-03-08T11:53:49;100936.77;;;11.28;58.66
77027;BME280;65956;52.986;17.490;2024-03-08T11:56:16;100932.84;;;11.47;57.82
77027;BME280;65956;52.986;17.490;2024-03-08T11:58:52;100928.37;;;11.58;56.27
77027;BME280;65956;52.986;17.490;2024-03-08T12:01:20;100927.46;;;11.73;56.73
77027;BME280;65956;52.986;17.490;2024-03-08T12:03:53;100926.91;;;11.95;56.22
77027;BME280;65956;52.986;17.490;2024-03-08T12:06:19;100922.24;;;12.08;55.55
77027;BME280;65956;52.986;17.490;2024-03-08T12:08:48;100924.22;;;12.27;55.56
77027;BME280;65956;52.986;17.490;2024-03-08T12:11:15;100924.89;;;12.45;55.56
77027;BME280;65956;52.986;17.490;2024-03-08T12:13:41;100914.54;;;12.63;55.19
77027;BME280;65956;52.986;17.490;2024-03-08T12:16:09;100915.71;;;12.76;53.63
77027;BME280;65956;52.986;17.490;2024-03-08T12:18:37;100913.96;;;12.76;53.69
77027;BME280;65956;52.986;17.490;2024-03-08T12:21:08;100910.80;;;12.78;52.82
77027;BME280;65956;52.986;17.490;2024-03-08T12:23:37;100908.74;;;12.75;51.37
77027;BME280;65956;52.986;17.490;2024-03-08T12:26:23;100907.11;;;12.67;50.48
77027;BME280;65956;52.986;17.490;2024-03-08T12:28:50;100904.17;;;12.69;51.70
77027;BME280;65956;52.986;17.490;2024-03-08T12:31:16;100901.20;;;12.73;52.02
77027;BME280;65956;52.986;17.490;2024-03-08T12:33:50;100895.45;;;12.78;51.36
77027;BME280;65956;52.986;17.490;2024-03-08T12:36:16;100897.63;;;12.88;51.22
77027;BME280;65956;52.986;17.490;2024-03-08T12:38:44;100895.02;;;13.51;50.40
77027;BME280;65956;52.986;17.490;2024-03-08T12:41:20;100890.17;;;15.86;46.61
77027;BME280;65956;52.986;17.490;2024-03-08T12:43:47;100894.27;;;18.07;45.92
77027;BME280;65956;52.986;17.490;2024-03-08T12:46:17;100886.86;;;20.02;41.67
77027;BME280;65956;52.986;17.490;2024-03-08T12:48:46;100888.27;;;21.76;41.19
77027;BME280;65956;52.986;17.490;2024-03-08T12:51:17;100886.19;;;23.05;36.71
77027;BME280;65956;52.986;17.490;2024-03-08T12:53:44;100876.38;;;23.91;35.79
77027;BME280;65956;52.986;17.490;2024-03-08T12:56:20;100879.59;;;24.66;33.90
77027;BME280;65956;52.986;17.490;2024-03-08T12:58:54;100879.00;;;25.31;33.51
77027;BME280;65956;52.986;17.490;2024-03-08T13:01:20;100875.48;;;25.93;32.76
77027;BME280;65956;52.986;17.490;2024-03-08T13:03:47;100878.05;;;26.46;29.08
77027;BME280;65956;52.986;17.490;2024-03-08T13:06:15;100872.91;;;26.67;29.64
77027;BME280;65956;52.986;17.490;2024-03-08T13:08:41;100869.05;;;27.08;28.48
77027;BME280;65956;52.986;17.490;2024-03-08T13:11:10;100866.51;;;27.63;27.69
77027;BME280;65956;52.986;17.490;2024-03-08T13:13:40;100862.08;;;28.28;27.04
77027;BME280;65956;52.986;17.490;2024-03-08T13:16:06;100864.31;;;28.39;24.44
77027;BME280;65956;52.986;17.490;2024-03-08T13:18:38;100860.17;;;28.28;25.07
77027;BME280;65956;52.986;17.490;2024-03-08T13:21:04;100853.59;;;28.29;24.51
77027;BME280;65956;52.986;17.490;2024-03-08T13:23:37;100851.45;;;28.56;23.83
77027;BME280;65956;52.986;17.490;2024-03-08T13:26:07;100845.66;;;28.44;22.71
77027;BME280;65956;52.986;17.490;2024-03-08T13:28:34;100848.53;;;28.00;22.49
77027;BME280;65956;52.986;17.490;2024-03-08T13:31:04;100846.17;;;27.63;22.74
77027;BME280;65956;52.986;17.490;2024-03-08T13:33:36;100843.28;;;27.08;21.60
77027;BME280;65956;52.986;17.490;2024-03-08T13:36:08;100836.73;;;26.27;22.11
77027;BME280;65956;52.986;17.490;2024-03-08T13:38:47;100830.66;;;25.45;22.19
77027;BME280;65956;52.986;17.490;2024-03-08T13:41:15;100826.19;;;25.14;22.05
77027;BME280;65956;52.986;17.490;2024-03-08T13:43:47;100823.70;;;25.04;22.37
77027;BME280;65956;52.986;17.490;2024-03-08T13:46:17;100821.42;;;24.80;22.00
77027;BME280;65956;52.986;17.490;2024-03-08T13:48:43;100819.98;;;24.73;21.95
77027;BME280;65956;52.986;17.490;2024-03-08T13:51:09;100815.83;;;24.33;21.92
77027;BME280;65956;52.986;17.490;2024-03-08T13:53:41;100814.76;;;23.64;21.83
77027;BME280;65956;52.986;17.490;2024-03-08T13:56:07;100814.40;;;23.24;22.47
77027;BME280;65956;52.986;17.490;2024-03-08T13:58:36;100814.38;;;23.19;23.13
77027;BME280;65956;52.986;17.490;2024-03-08T14:01:02;100815.64;;;23.08;22.77
77027;BME280;65956;52.986;17.490;2024-03-08T14:03:31;100806.14;;;22.98;22.53
77027;BME280;65956;52.986;17.490;2024-03-08T14:05:58;100805.77;;;23.15;22.92
77027;BME280;65956;52.986;17.490;2024-03-08T14:08:26;100800.97;;;23.19;22.37
77027;BME280;65956;52.986;17.490;2024-03-08T14:10:53;100799.80;;;23.11;22.78
77027;BME280;65956;52.986;17.490;2024-03-08T14:13:19;100798.24;;;23.17;22.58
77027;BME280;65956;52.986;17.490;2024-03-08T14:15:47;100794.20;;;23.41;22.64
77027;BME280;65956;52.986;17.490;2024-03-08T14:18:14;100792.40;;;23.68;21.72
77027;BME280;65956;52.986;17.490;2024-03-08T14:20:41;100792.09;;;23.67;21.39
77027;BME280;65956;52.986;17.490;2024-03-08T14:23:08;100790.63;;;23.86;21.69
77027;BME280;65956;52.986;17.490;2024-03-08T14:25:34;100786.60;;;24.22;21.78
77027;BME280;65956;52.986;17.490;2024-03-08T14:28:00;100786.59;;;24.01;21.10
77027;BME280;65956;52.986;17.490;2024-03-08T14:30:30;100783.15;;;23.59;20.80
77027;BME280;65956;52.986;17.490;2024-03-08T14:33:09;100780.40;;;23.16;21.13
77027;BME280;65956;52.986;17.490;2024-03-08T14:35:36;100778.77;;;22.99;21.49
77027;BME280;65956;52.986;17.490;2024-03-08T14:38:02;100773.98;;;23.28;22.09
77027;BME280;65956;52.986;17.490;2024-03-08T14:40:29;100773.84;;;23.54;22.47
77027;BME280;65956;52.986;17.490;2024-03-08T14:42:56;100773.48;;;23.69;22.69
77027;BME280;65956;52.986;17.490;2024-03-08T14:45:23;100770.23;;;23.75;22.29
77027;BME280;65956;52.986;17.490;2024-03-08T14:47:50;100767.76;;;24.00;21.51
77027;BME280;65956;52.986;17.490;2024-03-08T14:50:17;100766.20;;;24.03;21.50
77027;BME280;65956;52.986;17.490;2024-03-08T14:52:44;100762.89;;;24.05;21.55
77027;BME280;65956;52.986;17.490;2024-03-08T14:55:17;100764.89;;;24.24;21.34
77027;BME280;65956;52.986;17.490;2024-03-08T14:57:45;100766.25;;;24.12;21.49
77027;BME280;65956;52.986;17.490;2024-03-08T15:00:13;100763.98;;;24.28;21.79
77027;BME280;65956;52.986;17.490;2024-03-08T15:02:57;100756.95;;;24.66;21.23
77027;BME280;65956;52.986;17.490;2024-03-08T15:05:24;100755.75;;;24.68;21.33
77027;BME280;65956;52.986;17.490;2024-03-08T15:07:53;100756.89;;;24.74;21.47
77027;BME280;65956;52.986;17.490;2024-03-08T15:10:23;100753.73;;;24.22;21.29
77027;BME280;65956;52.986;17.490;2024-03-08T15:12:52;100746.21;;;23.62;21.64
77027;BME280;65956;52.986;17.490;2024-03-08T15:15:22;100745.27;;;23.26;21.72
77027;BME280;65956;52.986;17.490;2024-03-08T15:17:50;100741.86;;;23.00;21.92
77027;BME280;65956;52.986;17.490;2024-03-08T15:20:17;100743.39;;;22.97;21.95
77027;BME280;65956;52.986;17.490;2024-03-08T15:22:50;100736.52;;;22.81;21.86
77027;BME280;65956;52.986;17.490;2024-03-08T15:25:18;100735.53;;;22.55;21.96
77027;BME280;65956;52.986;17.490;2024-03-08T15:27:55;100729.12;;;22.38;21.90
77027;BME280;65956;52.986;17.490;2024-03-08T15:30:22;100728.36;;;22.43;21.90